Flight Track Log - Related Links

Times and Time Zones

All times are in EDT time to prevent confusion due to time zone crossing. See the UAL906 flight status page for this flight to view local times or setup timezone preferences in your user account.


Time Position Orientation Groundspeed Altitude Reporting Facility
EDT Latitude Longitude Course Direction KTS MPH feet Rate Location/Type
Fri 07:09:27 PM 41.9660 -87.9240 270° West 178 205 1,000  Level FlightAware ADS-B
Fri 07:09:57 PM 41.9650 -87.9570 268° West 197 227 1,900 1,800 Climbing FlightAware ADS-B
Fri 07:10:27 PM 41.9640 -87.9980 268° West 224 258 2,800 2,182 Climbing FlightAware ADS-B
Fri 07:10:52 PM 41.9630 -88.0360 268° West 239 275 3,900 2,618 Climbing FlightAware ADS-B
Fri 07:11:22 PM 41.9630 -88.0810 270° West 250 288 5,200 2,600 Climbing FlightAware ADS-B
Fri 07:11:52 PM 41.9620 -88.1230 268° West 254 292 6,500 2,727 Climbing FlightAware ADS-B
Fri 07:12:17 PM 41.9650 -88.1600 276° West 264 304 7,700 2,850 Climbing FlightAware ADS-B
Fri 07:12:32 PM 41.9790 -88.1850 307° West 277 319 8,400 3,400 Climbing FlightAware ADS-B
Fri 07:12:47 PM 41.9990 -88.1960 338° Northwest 292 336 9,400 3,150 Climbing FlightAware ADS-B
Fri 07:13:12 PM 42.0310 -88.1890 North 303 349 10,500 2,571 Climbing FlightAware ADS-B
Fri 07:13:57 PM 42.0780 -88.1380 39° Northeast 304 350 12,400 1,624 Climbing FlightAware ADS-B
Fri 07:14:37 PM 42.1300 -88.0960 31° Northeast 354 407 12,800 1,350 Climbing FlightAware ADS-B
Fri 07:15:17 PM 42.1830 -88.0580 28° Northeast 365 420 14,200 2,188 Climbing FlightAware ADS-B
Fri 07:16:02 PM 42.2570 -88.0070 27° Northeast 380 437 15,900 2,118 Climbing FlightAware ADS-B
Fri 07:16:42 PM 42.3260 -87.9600 27° Northeast 398 458 17,200 2,047 Climbing FlightAware ADS-B
Fri 07:17:27 PM 42.4000 -87.9100 27° Northeast 407 468 18,800 2,047 Climbing FlightAware ADS-B
Fri 07:18:07 PM 42.4700 -87.8620 27° Northeast 415 478 20,100 1,906 Climbing FlightAware ADS-B
Fri 07:18:52 PM 42.5470 -87.8100 26° Northeast 422 486 21,500 1,835 Climbing FlightAware ADS-B
Fri 07:19:32 PM 42.6180 -87.7620 26° Northeast 427 491 22,700 1,725 Climbing FlightAware ADS-B
Fri 07:20:12 PM 42.6860 -87.7150 27° Northeast 433 498 23,800 1,553 Climbing FlightAware ADS-B
Fri 07:20:57 PM 42.7690 -87.6580 27° Northeast 444 511 24,900 1,412 Climbing FlightAware ADS-B
Fri 07:21:37 PM 42.8400 -87.5910 35° Northeast 463 533 25,800 1,425 Climbing FlightAware ADS-B
Fri 07:22:17 PM 42.8980 -87.5010 49° Northeast 475 547 26,800 1,350 Climbing FlightAware ADS-B
Fri 07:22:57 PM 42.9520 -87.4140 50° Northeast 479 551 27,600 565 Climbing FlightAware ADS-B
Fri 07:23:42 PM 43.0090 -87.3210 50° Northeast 479 551 27,600 1,933 Level FlightAware ADS-B
Fri 07:24:27 PM 43.0820 -87.2050 49° Northeast 466 536 30,500 2,550 Climbing FlightAware ADS-B
Fri 07:25:02 PM 43.1290 -87.1300 49° Northeast 470 541 31,000 988 Climbing FlightAware ADS-B
Fri 07:25:52 PM 43.2000 -87.0150 50° Northeast 474 545 31,900 733 Climbing FlightAware ADS-B
Fri 07:26:32 PM 43.2550 -86.9280 49° Northeast 476 548 32,100 825 Climbing FlightAware ADS-B
Fri 07:27:12 PM 43.3160 -86.8280 50° Northeast 485 558 33,000 635 Climbing FlightAware ADS-B
Fri 07:27:57 PM 43.3820 -86.7220 49° Northeast 498 573 33,000  Level FlightAware ADS-B
Fri 07:28:37 PM 43.4410 -86.6270 49° Northeast 504 580 33,000  Level FlightAware ADS-B
Fri 07:29:22 PM 43.5120 -86.5110 50° Northeast 512 589 33,000  Level FlightAware ADS-B
Fri 07:30:02 PM 43.5710 -86.4130 50° Northeast 508 585 33,000  Level FlightAware ADS-B
Fri 07:30:42 PM 43.6250 -86.3040 56° Northeast 517 595 33,000  Level FlightAware ADS-B
Fri 07:31:27 PM 43.6730 -86.1780 62° Northeast 515 593 33,000  Level FlightAware ADS-B
Fri 07:32:02 PM 43.7130 -86.0760 61° Northeast 513 590 33,000  Level FlightAware ADS-B
Fri 07:32:52 PM 43.7720 -85.9300 61° Northeast 514 592 33,000  Level FlightAware ADS-B
Fri 07:33:32 PM 43.8180 -85.8180 60° Northeast 515 593 33,000  Level FlightAware ADS-B
Fri 07:34:17 PM 43.8710 -85.6890 60° Northeast 515 593 33,000  Level FlightAware ADS-B
Fri 07:34:57 PM 43.9170 -85.5740 61° Northeast 516 594 33,000  Level FlightAware ADS-B
Fri 07:35:37 PM 43.9620 -85.4570 62° Northeast 516 594 33,000  Level FlightAware ADS-B
Fri 07:36:22 PM 44.0140 -85.3220 62° Northeast 514 592 33,000  Level FlightAware ADS-B
Fri 07:37:02 PM 44.0580 -85.2060 62° Northeast 513 590 33,000  Level FlightAware ADS-B
Fri 07:37:47 PM 44.1060 -85.0790 62° Northeast 510 587 33,000  Level FlightAware ADS-B
Fri 07:38:27 PM 44.1500 -84.9630 62° Northeast 509 586 33,000  Level FlightAware ADS-B
Fri 07:39:07 PM 44.1940 -84.8470 62° Northeast 507 583 33,000  Level FlightAware ADS-B
Fri 07:39:52 PM 44.2430 -84.7180 62° Northeast 506 582 33,000  Level FlightAware ADS-B
Fri 07:40:32 PM 44.2870 -84.6010 62° Northeast 505 581 33,000  Level FlightAware ADS-B
Fri 07:41:17 PM 44.3350 -84.4710 63° Northeast 504 580 33,000  Level FlightAware ADS-B
Fri 07:41:57 PM 44.3770 -84.3590 62° Northeast 502 578 33,000  Level FlightAware ADS-B
Fri 07:42:37 PM 44.4210 -84.2410 62° Northeast 500 575 33,000  Level FlightAware ADS-B
Fri 07:43:22 PM 44.4700 -84.1080 63° Northeast 499 574 33,000  Level FlightAware ADS-B
Fri 07:44:02 PM 44.5120 -83.9950 62° Northeast 501 577 33,000  Level FlightAware ADS-B
Fri 07:44:42 PM 44.5520 -83.8870 63° Northeast 501 577 33,000  Level FlightAware ADS-B
Fri 07:45:27 PM 44.6020 -83.7530 62° Northeast 504 580 33,000  Level FlightAware ADS-B
Fri 07:46:07 PM 44.6450 -83.6340 63° Northeast 504 580 33,000  Level FlightAware ADS-B
Fri 07:46:42 PM 44.6820 -83.5320 63° Northeast 503 579 33,000  Level FlightAware ADS-B
Fri 07:47:32 PM 44.7340 -83.3880 63° Northeast 501 577 33,000  Level FlightAware ADS-B
Fri 07:48:07 PM 44.7700 -83.2880 63° Northeast 500 575 33,000  Level FlightAware ADS-B
Fri 07:48:57 PM 44.8220 -83.1410 63° Northeast 500 575 33,000  Level FlightAware ADS-B
Fri 07:49:37 PM 44.8640 -83.0250 63° Northeast 502 578 33,000  Level FlightAware ADS-B
Fri 07:50:17 PM 44.9050 -82.9080 64° Northeast 501 577 33,000  Level FlightAware ADS-B
Fri 07:51:02 PM 44.9530 -82.7730 63° Northeast 501 577 33,000  Level FlightAware ADS-B
Fri 07:51:42 PM 44.9940 -82.6570 63° Northeast 500 575 33,000  Level FlightAware ADS-B
Fri 07:52:27 PM 45.0390 -82.5290 64° Northeast 499 574 33,000  Level FlightAware ADS-B
Fri 07:53:07 PM 45.0800 -82.4120 64° Northeast 499 574 33,000  Level FlightAware ADS-B
Fri 07:53:47 PM 45.1210 -82.2950 64° Northeast 499 574 33,000  Level FlightAware ADS-B
Fri 07:54:27 PM 45.1620 -82.1770 64° Northeast 499 574 33,000  Level FlightAware ADS-B
Fri 07:55:12 PM 45.2070 -82.0470 64° Northeast 498 573 33,000  Level FlightAware ADS-B
Fri 07:55:57 PM 45.2520 -81.9180 64° Northeast 497 572 33,000  Level FlightAware ADS-B
Fri 07:56:37 PM 45.2890 -81.8070 65° Northeast 497 572 33,000  Level FlightAware ADS-B
Fri 07:57:17 PM 45.3300 -81.6870 64° Northeast 497 572 33,000  Level FlightAware ADS-B
Fri 07:58:02 PM 45.3740 -81.5540 65° Northeast 496 571 33,000  Level FlightAware ADS-B
Fri 07:58:42 PM 45.4160 -81.4290 64° Northeast 495 570 33,000  Level FlightAware ADS-B
Fri 07:59:27 PM 45.4540 -81.3180 64° Northeast 495 570 33,000  Level FlightAware ADS-B
Fri 08:00:02 PM 45.4910 -81.2080 64° Northeast 494 568 33,000  Level FlightAware ADS-B
Fri 08:00:47 PM 45.5340 -81.0800 64° Northeast 494 568 33,000  Level FlightAware ADS-B
Fri 08:01:32 PM 45.5790 -80.9420 65° Northeast 493 567 33,000  Level FlightAware ADS-B
Fri 08:02:12 PM 45.6150 -80.8330 65° Northeast 493 567 33,000  Level FlightAware ADS-B
Fri 08:02:57 PM 45.6610 -80.6930 65° Northeast 493 567 33,000  Level FlightAware ADS-B
Fri 08:03:32 PM 45.6950 -80.5910 64° Northeast 493 567 33,000  Level FlightAware ADS-B
Fri 08:04:17 PM 45.7390 -80.4570 65° Northeast 493 567 33,000  Level FlightAware ADS-B
Fri 08:05:02 PM 45.7820 -80.3230 65° Northeast 492 566 33,000  Level FlightAware ADS-B
Fri 08:05:42 PM 45.8170 -80.2130 65° Northeast 492 566 33,000  Level FlightAware ADS-B
Fri 08:06:22 PM 45.8540 -80.0970 65° Northeast 492 566 33,000  Level FlightAware ADS-B
Fri 08:07:07 PM 45.9000 -79.9520 65° Northeast 491 565 33,000  Level FlightAware ADS-B
Fri 08:07:47 PM 45.9370 -79.8350 66° East 492 566 33,000  Level FlightAware ADS-B
Fri 08:08:32 PM 45.9770 -79.7070 66° East 493 567 33,000  Level FlightAware ADS-B
Fri 08:09:12 PM 46.0140 -79.5870 66° East 493 567 33,000  Level FlightAware ADS-B
Fri 08:09:57 PM 46.0580 -79.4460 66° East 491 565 33,000  Level FlightAware ADS-B
Fri 08:10:37 PM 46.0950 -79.3280 66° East 492 566 33,000  Level FlightAware ADS-B
Fri 08:11:17 PM 46.1320 -79.2100 66° East 493 567 33,000  Level FlightAware ADS-B
Fri 08:12:02 PM 46.1710 -79.0800 67° East 493 567 33,000  Level FlightAware ADS-B
Fri 08:12:42 PM 46.2100 -78.9520 66° East 493 567 33,000  Level FlightAware ADS-B
Fri 08:13:27 PM 46.2520 -78.8160 66° East 493 567 33,000  Level FlightAware ADS-B
Fri 08:14:07 PM 46.2870 -78.7000 66° East 494 568 33,000  Level FlightAware ADS-B
Fri 08:14:47 PM 46.3250 -78.5730 67° East 494 568 33,000  Level FlightAware ADS-B
Fri 08:15:32 PM 46.3650 -78.4390 67° East 494 568 33,000  Level FlightAware ADS-B
Fri 08:16:07 PM 46.3950 -78.3340 67° East 494 568 33,000  Level FlightAware ADS-B
Fri 08:16:42 PM 46.4250 -78.2370 66° East 494 568 33,000  Level FlightAware ADS-B
Fri 08:17:32 PM 46.4650 -78.1080 66° East 494 568 33,000  Level FlightAware ADS-B
Fri 08:18:12 PM 46.4960 -78.0050 66° East 494 568 33,000  Level FlightAware ADS-B
Fri 08:18:52 PM 46.5280 -77.9020 66° East 494 568 33,000  Level FlightAware ADS-B
Fri 08:19:32 PM 46.5600 -77.7980 66° East 494 568 33,000  Level FlightAware ADS-B
Fri 08:20:12 PM 46.5910 -77.6950 66° East 494 568 33,000  Level FlightAware ADS-B
Fri 08:21:02 PM 46.6310 -77.5660 66° East 494 568 33,000  Level FlightAware ADS-B
Fri 08:21:42 PM 46.6620 -77.4620 66° East 494 568 33,000  Level FlightAware ADS-B
Fri 08:22:22 PM 46.6940 -77.3590 66° East 494 568 33,000  Level FlightAware ADS-B
Fri 08:23:02 PM 46.7260 -77.2550 66° East 494 568 33,000  Level FlightAware ADS-B
Fri 08:23:42 PM 46.7570 -77.1520 66° East 494 568 33,000  Level FlightAware ADS-B
Fri 08:24:22 PM 46.7890 -77.0480 66° East 494 568 33,000  Level FlightAware ADS-B
Fri 08:25:12 PM 46.8280 -76.9190 66° East 494 568 33,000  Level FlightAware ADS-B
Fri 08:25:52 PM 46.8600 -76.8150 66° East 494 568 33,000  Level FlightAware ADS-B
Fri 08:29:12 PM 47.0690 -75.9250 71° East 491 565 33,000  Level FlightAware ADS-B
Fri 08:29:52 PM 47.1020 -75.8010 69° East 491 565 33,000  Level FlightAware ADS-B
Fri 08:30:47 PM 47.1460 -75.6280 69° East 491 565 33,000  Level FlightAware ADS-B
Fri 08:31:42 PM 47.1890 -75.4620 69° East 490 564 33,000  Level FlightAware ADS-B
Fri 08:32:27 PM 47.2230 -75.3310 69° East 489 563 33,000  Level FlightAware ADS-B
Fri 08:33:07 PM 47.2510 -75.2250 69° East 489 563 33,000  Level FlightAware ADS-B
Fri 08:33:47 PM 47.2790 -75.1190 69° East 489 563 33,000  Level FlightAware ADS-B
Fri 08:34:32 PM 47.3290 -74.9130 70° East 488 562 33,000  Level FlightAware ADS-B
Fri 08:35:12 PM 47.3600 -74.7890 70° East 490 564 33,000  Level FlightAware ADS-B
Fri 08:35:57 PM 47.3940 -74.6490 70° East 489 563 33,000  Level FlightAware ADS-B
Fri 08:36:37 PM 47.4250 -74.5250 70° East 489 563 33,000  Level FlightAware ADS-B
Fri 08:37:17 PM 47.4560 -74.3990 70° East 488 562 33,000  Level FlightAware ADS-B
Fri 08:37:57 PM 47.4850 -74.2810 70° East 487 560 33,000  Level FlightAware ADS-B
Fri 08:38:42 PM 47.5210 -74.1340 70° East 486 559 33,000  Level FlightAware ADS-B
Fri 08:39:27 PM 47.5550 -73.9910 71° East 486 559 33,000  Level FlightAware ADS-B
Fri 08:40:07 PM 47.5860 -73.8690 69° East 481 554 33,000  Level FlightAware ADS-B
Fri 08:40:52 PM 47.6400 -73.7480 56° Northeast 468 539 33,000  Level FlightAware ADS-B
Fri 08:41:32 PM 47.6990 -73.6520 48° Northeast 469 540 33,000  Level FlightAware ADS-B
Fri 08:42:12 PM 47.7570 -73.5570 48° Northeast 468 539 33,000  Level FlightAware ADS-B
Fri 08:42:57 PM 47.8220 -73.4510 48° Northeast 467 537 33,000  Level FlightAware ADS-B
Fri 08:43:37 PM 47.8790 -73.3560 48° Northeast 467 537 33,000  Level FlightAware ADS-B
Fri 08:44:17 PM 47.9360 -73.2620 48° Northeast 467 537 33,000  Level FlightAware ADS-B
Fri 08:45:02 PM 48.0010 -73.1540 48° Northeast 466 536 33,000  Level FlightAware ADS-B
Fri 08:45:42 PM 48.0580 -73.0590 48° Northeast 466 536 33,000  Level FlightAware ADS-B
Fri 08:46:27 PM 48.1230 -72.9490 48° Northeast 466 536 33,000  Level FlightAware ADS-B
Fri 08:47:07 PM 48.1800 -72.8520 49° Northeast 466 536 33,000  Level FlightAware ADS-B
Fri 08:47:47 PM 48.2370 -72.7560 48° Northeast 466 536 33,000  Level FlightAware ADS-B
Fri 08:48:32 PM 48.3010 -72.6480 48° Northeast 466 536 33,000  Level FlightAware ADS-B
Fri 08:49:12 PM 48.3570 -72.5510 49° Northeast 466 536 33,000  Level FlightAware ADS-B
Fri 08:50:07 PM 48.4340 -72.4200 48° Northeast 465 535 33,000  Level FlightAware ADS-B
Fri 08:50:47 PM 48.4910 -72.3220 49° Northeast 464 534 33,000  Level FlightAware ADS-B
Fri 08:51:32 PM 48.5530 -72.2150 49° Northeast 465 535 33,000  Level FlightAware ADS-B
Fri 08:52:12 PM 48.6100 -72.1190 48° Northeast 465 535 33,000  Level FlightAware ADS-B
Fri 08:53:27 PM 48.7110 -71.9470 48° Northeast 467 537 33,000  Level FlightAware ADS-B
Fri 08:54:17 PM 48.7850 -71.8160 49° Northeast 468 539 33,000  Level FlightAware ADS-B
Fri 08:55:37 PM 48.8950 -71.6230 49° Northeast 470 541 33,000  Level FlightAware ADS-B
Fri 08:56:52 PM 49.0030 -71.4340 49° Northeast 470 541 33,000  Level FlightAware ADS-B
Fri 08:57:42 PM 49.0750 -71.3050 50° Northeast 470 541 33,000  Level FlightAware ADS-B
Fri 08:58:22 PM 49.1360 -71.1970 49° Northeast 471 542 33,000  Level FlightAware ADS-B
Fri 08:58:57 PM 49.1830 -71.1130 49° Northeast 471 542 33,000  Level FlightAware ADS-B
Fri 08:59:42 PM 49.2400 -71.0120 49° Northeast 471 542 33,000  Level FlightAware ADS-B
Fri 09:00:22 PM 49.2890 -70.9270 49° Northeast 471 542 33,000  Level FlightAware ADS-B
Fri 09:01:02 PM 49.3370 -70.8410 49° Northeast 471 542 33,000  Level FlightAware ADS-B
Fri 09:01:52 PM 49.3980 -70.7340 49° Northeast 471 542 33,000  Level FlightAware ADS-B
Fri 09:02:32 PM 49.4470 -70.6480 49° Northeast 471 542 33,000  Level FlightAware ADS-B
Fri 09:03:12 PM 49.4950 -70.5620 49° Northeast 471 542 33,000  Level FlightAware ADS-B
Fri 09:03:52 PM 49.5440 -70.4750 49° Northeast 471 542 33,000  Level FlightAware ADS-B
Fri 09:04:42 PM 49.6050 -70.3680 49° Northeast 471 542 33,000  Level FlightAware ADS-B
Fri 09:05:22 PM 49.6530 -70.2810 50° Northeast 471 542 33,000  Level FlightAware ADS-B
Fri 09:06:02 PM 49.7020 -70.1950 49° Northeast 471 542 33,000  Level FlightAware ADS-B
Fri 09:06:42 PM 49.7510 -70.1080 49° Northeast 471 542 33,000  Level FlightAware ADS-B
Fri 09:07:22 PM 49.7990 -70.0220 49° Northeast 471 542 33,000  Level FlightAware ADS-B
Fri 09:08:02 PM 49.8480 -69.9350 49° Northeast 471 542 33,000  Level FlightAware ADS-B
Fri 09:08:52 PM 49.9090 -69.8270 49° Northeast 471 542 33,000  Level FlightAware ADS-B
Fri 09:09:28 PM 50.0667 -69.4667 49° Northeast 470 541 33,000  Level Montreal Center
Fri 09:10:28 PM 50.1667 -69.2833 50° Northeast 480 552 33,000  Level Montreal Center
Fri 09:11:28 PM 50.2333 -69.1167 58° Northeast 480 552 33,000  Level Montreal Center
Fri 09:12:28 PM 50.3333 -68.9500 47° Northeast 480 552 33,000  Level Montreal Center
Fri 09:13:28 PM 50.4000 -68.8000 55° Northeast 480 552 33,000  Level Montreal Center
Fri 09:14:28 PM 50.5000 -68.6333 47° Northeast 480 552 33,000  Level Montreal Center
Fri 09:15:28 PM 50.5667 -68.4667 58° Northeast 480 552 33,000  Level Montreal Center
Fri 09:16:28 PM 50.6667 -68.3167 44° Northeast 480 552 33,000  Level Montreal Center
Fri 09:17:28 PM 50.7500 -68.1333 54° Northeast 480 552 33,000  Level Montreal Center
Fri 09:18:28 PM 50.8167 -67.9667 58° Northeast 480 552 33,000  Level Montreal Center
Fri 09:19:28 PM 50.9167 -67.7833 49° Northeast 480 552 33,000  Level Montreal Center
Fri 09:20:28 PM 50.9833 -67.6333 55° Northeast 480 552 33,000  Level Montreal Center
Fri 09:21:28 PM 51.0667 -67.4667 51° Northeast 480 552 33,000  Level Montreal Center
Fri 09:22:28 PM 51.1667 -67.2833 49° Northeast 480 552 33,000  Level Montreal Center
Fri 09:23:28 PM 51.2333 -67.1000 60° Northeast 490 564 33,000  Level Montreal Center
Fri 09:24:28 PM 51.3167 -66.9333 51° Northeast 490 564 33,000  Level Montreal Center
Fri 09:25:28 PM 51.4000 -66.7667 51° Northeast 490 564 33,000  Level Montreal Center
Fri 09:26:28 PM 51.5000 -66.5667 51° Northeast 500 575 33,000  Level Montreal Center
Fri 09:27:28 PM 51.5833 -66.4167 48° Northeast 500 575 33,000  Level Montreal Center
Fri 09:28:28 PM 51.6667 -66.2333 54° Northeast 500 575 33,000  Level Montreal Center
Fri 09:29:28 PM 51.7500 -66.0500 54° Northeast 500 575 33,000  Level Montreal Center
Fri 09:30:28 PM 51.8500 -65.8833 46° Northeast 510 587 33,000  Level Montreal Center
Fri 09:31:28 PM 51.9333 -65.7000 54° Northeast 510 587 33,000  Level Montreal Center
Fri 09:32:28 PM 52.0167 -65.5167 54° Northeast 510 587 33,000  Level Montreal Center
Fri 09:32:53 PM 52.0500 -65.4500 51° Northeast 510 587 33,000  Level Moncton Center
Fri 09:33:29 PM 52.1000 -65.3667 46° Northeast 510 587 33,000  Level Gander Center
Fri 09:34:29 PM 52.2000 -65.1833 48° Northeast 510 587 33,000  Level Gander Center
Fri 09:35:29 PM 52.2833 -65.0000 53° Northeast 510 587 33,000  Level Gander Center
Fri 09:36:29 PM 52.3500 -64.8167 59° Northeast 520 598 33,000  Level Gander Center
Fri 09:37:29 PM 52.4667 -64.6333 44° Northeast 520 598 33,000  Level Gander Center
Fri 09:38:29 PM 52.5333 -64.4167 63° Northeast 520 598 33,000  Level Gander Center
Fri 09:39:29 PM 52.6167 -64.2500 50° Northeast 520 598 33,000  Level Gander Center
Fri 09:40:29 PM 52.7167 -64.0500 50° Northeast 520 598 33,000  Level Gander Center
Fri 09:41:29 PM 52.8000 -63.8500 55° Northeast 530 610 33,000  Level Gander Center
Fri 09:42:29 PM 52.8833 -63.6667 53° Northeast 530 610 33,000  Level Gander Center
Fri 09:43:29 PM 52.9667 -63.4833 53° Northeast 530 610 33,000  Level Gander Center
Fri 09:44:29 PM 53.0667 -63.2500 54° Northeast 530 610 33,000  Level Gander Center
Fri 09:45:29 PM 53.1667 -63.0667 48° Northeast 540 621 33,000  Level Gander Center
Fri 09:46:29 PM 53.2500 -62.8500 57° Northeast 550 633 33,000  Level Gander Center
Fri 09:47:29 PM 53.3333 -62.6333 57° Northeast 550 633 33,000 150 Level Gander Center
Fri 09:48:29 PM 53.4167 -62.4333 55° Northeast 560 644 33,300 900 Climbing Gander Center
Fri 09:49:29 PM 53.5167 -62.2333 50° Northeast 560 644 34,800 850 Climbing Gander Center
Fri 09:50:29 PM 53.6167 -62.0167 52° Northeast 550 633 35,000 100 Climbing Gander Center
Fri 09:51:29 PM 53.7000 -61.8167 55° Northeast 530 610 35,000  Level Gander Center
Fri 09:52:29 PM 53.7833 -61.6000 57° Northeast 540 621 35,000  Level Gander Center
Fri 09:53:29 PM 53.8667 -61.4000 55° Northeast 550 633 35,000  Level Gander Center
Fri 09:54:06 PM 53.9333 -61.2500 53° Northeast 560 644 35,000  Level Gander Center
Fri 09:55:06 PM 54.0167 -61.0333 57° Northeast 560 644 35,000  Level Gander Center
Fri 09:55:29 PM 54.0500 -60.9333 60° Northeast 570 656 35,000  Level Gander Center
Fri 09:56:29 PM 54.1333 -60.7167 57° Northeast 570 656 35,000  Level Gander Center
Fri 09:57:06 PM 54.2000 -60.5667 53° Northeast 570 656 35,000  Level Gander Center
Fri 09:58:06 PM 54.2833 -60.3667 54° Northeast 570 656 35,000  Level Gander Center
Fri 09:58:29 PM 54.3167 -60.2833 56° Northeast 580 667 35,000  Level Gander Center
Fri 09:59:29 PM 54.4000 -60.0500 58° Northeast 580 667 35,000  Level Gander Center
Fri 10:00:29 PM 54.4833 -59.8167 58° Northeast 580 667 35,000  Level Gander Center
Fri 10:01:29 PM 54.5667 -59.5833 58° Northeast 580 667 35,000  Level Gander Center
Fri 10:02:29 PM 54.6667 -59.3500 53° Northeast 580 667 35,000  Level Gander Center
Fri 10:03:29 PM 54.7500 -59.1167 58° Northeast 580 667 35,000  Level Gander Center
Fri 10:04:29 PM 54.8500 -58.8667 55° Northeast 580 667 35,000  Level Gander Center
Fri 10:05:29 PM 54.9167 -58.6333 63° Northeast 580 667 35,000  Level Gander Center
Fri 10:06:06 PM 54.9833 -58.4833 52° Northeast 580 667 35,000  Level Gander Center
Fri 10:07:06 PM 55.0667 -58.2500 58° Northeast 580 667 35,000  Level Gander Center
Fri 10:07:29 PM 55.1000 -58.1500 60° Northeast 580 667 35,000  Level Gander Center
Fri 10:08:06 PM 55.1500 -58.0000 60° Northeast 570 656 35,000  Level Gander Center
Fri 10:08:29 PM 55.1833 -57.9500 41° Northeast 570 656 35,000  Level Gander Center
Fri 10:09:29 PM 55.2667 -57.7000 60° Northeast 570 656 35,000  Level Gander Center
Fri 10:10:29 PM 55.3500 -57.4667 58° Northeast 570 656 35,000  Level Gander Center
Fri 10:11:29 PM 55.4333 -57.2167 59° Northeast 570 656 35,000  Level Gander Center
Fri 10:12:29 PM 55.5167 -56.9667 59° Northeast 570 656 35,000  Level Gander Center
Fri 10:13:29 PM 55.5833 -56.7333 63° Northeast 570 656 35,000  Level Gander Center
Fri 10:14:29 PM 55.6500 -56.4500 67° East 570 656 35,000  Level Gander Center
Fri 10:15:29 PM 55.7167 -56.2167 63° Northeast 570 656 35,000  Level Gander Center
Fri 10:16:29 PM 55.7667 -55.9333 72° East 570 656 35,000  Level Gander Center
Fri 10:17:29 PM 55.8333 -55.6833 65° Northeast 570 656 35,000  Level Gander Center
Fri 10:18:29 PM 55.8833 -55.4500 69° East 570 656 35,000  Level Gander Center
Fri 10:19:29 PM 55.9333 -55.1667 72° East 570 656 35,000  Level Gander Center
Fri 10:20:29 PM 56.0000 -54.9500 61° Northeast 570 656 35,000  Level Gander Center
Fri 10:21:29 PM 56.0667 -54.6667 67° East 570 656 35,000  Level Gander Center
Fri 10:22:06 PM 56.0833 -54.5167 79° East 570 656 35,000  Level Gander Center
Fri 10:22:29 PM 56.1167 -54.3833 66° East 570 656 35,000  Level Gander Center
Fri 10:23:29 PM 56.1667 -54.1333 70° East 570 656 35,000  Level Gander Center
Fri 10:24:29 PM 56.2167 -53.8500 72° East 570 656 35,000  Level Gander Center
Fri 10:25:29 PM 56.2667 -53.6000 70° East 560 644 35,000  Level Gander Center
Fri 10:26:29 PM 56.3167 -53.3167 72° East 570 656 35,000  Level Gander Center
Fri 10:27:47 PM 56.4000 -53.0667 59° Northeast 280 322 35,000  Level Gander Center
Fri 10:28:47 PM 56.4500 -52.6833 77° East 620 713 35,000 13 Level Gander Center
Fri 10:30:00 PM 56.5098 -52.4085 68° East  Level FlightAware Approximate
Fri 10:37:00 PM 56.8416 -50.8104 69° East  Level FlightAware Approximate
Fri 10:38:00 PM 56.8874 -50.5798 70° East  Level FlightAware Approximate
Fri 10:39:00 PM 56.9327 -50.3486 70° East  Level FlightAware Approximate
Fri 10:40:00 PM 56.9776 -50.1169 70° East  Level FlightAware Approximate
Fri 10:41:00 PM 57.0269 -49.8871 66° East  Level FlightAware Approximate
Fri 10:42:00 PM 57.0804 -49.6610 66° East  Level FlightAware Approximate
Fri 10:43:00 PM 57.1335 -49.4343 67° East  Level FlightAware Approximate
Fri 10:44:00 PM 57.1862 -49.2070 67° East  Level FlightAware Approximate
Fri 10:45:00 PM 57.2385 -48.9790 67° East  Level FlightAware Approximate
Fri 10:46:00 PM 57.2904 -48.7503 67° East  Level FlightAware Approximate
Fri 10:47:00 PM 57.3441 -48.5229 65° Northeast  Level FlightAware Approximate
Fri 10:48:00 PM 57.3998 -48.2967 65° Northeast  Level FlightAware Approximate
Fri 10:49:00 PM 57.4550 -48.0698 66° East  Level FlightAware Approximate
Fri 10:50:00 PM 57.5099 -47.8422 66° East  Level FlightAware Approximate
Fri 10:51:00 PM 57.5644 -47.6139 66° East  Level FlightAware Approximate
Fri 10:52:00 PM 57.6184 -47.3849 66° East  Level FlightAware Approximate
Fri 10:53:00 PM 57.6712 -47.1547 67° East  Level FlightAware Approximate
Fri 10:54:00 PM 57.7223 -46.9227 67° East  Level FlightAware Approximate
Fri 10:55:00 PM 57.7730 -46.6901 68° East  Level FlightAware Approximate
Fri 10:56:00 PM 57.8232 -46.4568 68° East  Level FlightAware Approximate
Fri 10:57:00 PM 57.8731 -46.2229 68° East  Level FlightAware Approximate
Fri 10:58:00 PM 57.9225 -45.9884 68° East  Level FlightAware Approximate
Fri 10:59:00 PM 57.9714 -45.7532 68° East  Level FlightAware Approximate
Fri 11:00:00 PM 58.0200 -45.5173 69° East  Level FlightAware Approximate
Fri 11:01:00 PM 58.0681 -45.2808 69° East  Level FlightAware Approximate
Fri 11:02:00 PM 58.1157 -45.0437 69° East  Level FlightAware Approximate
Fri 11:03:00 PM 58.1629 -44.8060 69° East  Level FlightAware Approximate
Fri 11:04:00 PM 58.2097 -44.5676 69° East  Level FlightAware Approximate
Fri 11:05:00 PM 58.2560 -44.3286 70° East  Level FlightAware Approximate
Fri 11:06:00 PM 58.3019 -44.0890 70° East  Level FlightAware Approximate
Fri 11:07:00 PM 58.3473 -43.8488 70° East  Level FlightAware Approximate
Fri 11:08:00 PM 58.3923 -43.6079 70° East  Level FlightAware Approximate
Fri 11:09:00 PM 58.4368 -43.3665 71° East  Level FlightAware Approximate
Fri 11:10:00 PM 58.4809 -43.1244 71° East  Level FlightAware Approximate
Fri 11:11:00 PM 58.5245 -42.8817 71° East  Level FlightAware Approximate
Fri 11:12:00 PM 58.5677 -42.6384 71° East  Level FlightAware Approximate
Fri 11:13:00 PM 58.6104 -42.3945 71° East  Level FlightAware Approximate
Fri 11:14:00 PM 58.6526 -42.1501 72° East  Level FlightAware Approximate
Fri 11:15:00 PM 58.6944 -41.9050 72° East  Level FlightAware Approximate
Fri 11:16:00 PM 58.7356 -41.6594 72° East  Level FlightAware Approximate
Fri 11:17:00 PM 58.7765 -41.4132 72° East  Level FlightAware Approximate
Fri 11:18:00 PM 58.8168 -41.1664 72° East  Level FlightAware Approximate
Fri 11:19:00 PM 58.8567 -40.9190 73° East  Level FlightAware Approximate
Fri 11:20:00 PM 58.8961 -40.6710 73° East  Level FlightAware Approximate
Fri 11:21:00 PM 58.9351 -40.4225 73° East  Level FlightAware Approximate
Fri 11:22:00 PM 58.9735 -40.1735 73° East  Level FlightAware Approximate
Fri 11:23:00 PM 59.0027 -39.9208 86° East  Level FlightAware Approximate
Fri 11:24:00 PM 59.0112 -39.6610 86° East  Level FlightAware Approximate
Fri 11:25:00 PM 59.0192 -39.4010 86° East  Level FlightAware Approximate
Fri 11:26:00 PM 59.0266 -39.1409 87° East  Level FlightAware Approximate
Fri 11:27:00 PM 59.0336 -38.8807 87° East  Level FlightAware Approximate
Fri 11:28:00 PM 59.0400 -38.6204 87° East  Level FlightAware Approximate
Fri 11:29:00 PM 59.0459 -38.3600 87° East  Level FlightAware Approximate
Fri 11:30:00 PM 59.0513 -38.0995 88° East  Level FlightAware Approximate
Fri 11:31:00 PM 59.0561 -37.8389 88° East  Level FlightAware Approximate
Fri 11:32:00 PM 59.0605 -37.5783 88° East  Level FlightAware Approximate
Fri 11:33:00 PM 59.0643 -37.3176 88° East  Level FlightAware Approximate
Fri 11:34:00 PM 59.0680 -37.0568 88° East  Level FlightAware Approximate
Fri 11:35:00 PM 59.0723 -36.7961 88° East  Level FlightAware Approximate
Fri 11:36:00 PM 59.0761 -36.5353 88° East  Level FlightAware Approximate
Fri 11:37:00 PM 59.0794 -36.2745 88° East  Level FlightAware Approximate
Fri 11:38:00 PM 59.0821 -36.0136 89° East  Level FlightAware Approximate
Fri 11:39:00 PM 59.0844 -35.7527 89° East  Level FlightAware Approximate
Fri 11:40:00 PM 59.0860 -35.4917 89° East  Level FlightAware Approximate
Fri 11:41:00 PM 59.0872 -35.2307 89° East  Level FlightAware Approximate
Fri 11:42:00 PM 59.0879 -34.9697 90° East  Level FlightAware Approximate
Fri 11:43:00 PM 59.0880 -34.7087 90° East  Level FlightAware Approximate
Fri 11:44:00 PM 59.0876 -34.4477 90° East  Level FlightAware Approximate
Fri 11:45:00 PM 59.0867 -34.1867 90° East  Level FlightAware Approximate
Fri 11:46:00 PM 59.0852 -33.9258 91° East  Level FlightAware Approximate
Fri 11:47:00 PM 59.0832 -33.6648 91° East  Level FlightAware Approximate
Fri 11:48:00 PM 59.0807 -33.4039 91° East  Level FlightAware Approximate
Fri 11:49:00 PM 59.0777 -33.1430 91° East  Level FlightAware Approximate
Fri 11:50:00 PM 59.0742 -32.8822 91° East  Level FlightAware Approximate
Fri 11:51:00 PM 59.0701 -32.6215 92° East  Level FlightAware Approximate
Fri 11:52:00 PM 59.0655 -32.3608 92° East  Level FlightAware Approximate
Fri 11:53:00 PM 59.0604 -32.1002 92° East  Level FlightAware Approximate
Fri 11:54:00 PM 59.0548 -31.8396 92° East  Level FlightAware Approximate
Fri 11:55:00 PM 59.0486 -31.5792 93° East  Level FlightAware Approximate
Fri 11:56:00 PM 59.0419 -31.3188 93° East  Level FlightAware Approximate
Fri 11:57:00 PM 59.0347 -31.0586 93° East  Level FlightAware Approximate
Fri 11:58:00 PM 59.0270 -30.7984 93° East  Level FlightAware Approximate
Fri 11:59:00 PM 59.0187 -30.5384 93° East  Level FlightAware Approximate
Sat 12:00:00 AM 59.0100 -30.2785 94° East  Level FlightAware Approximate
Sat 12:01:00 AM 59.0007 -30.0188 94° East  Level FlightAware Approximate
Sat 12:02:00 AM 58.9854 -29.7603 97° East  Level FlightAware Approximate
Sat 12:03:00 AM 58.9692 -29.5020 97° East  Level FlightAware Approximate
Sat 12:04:00 AM 58.9524 -29.2440 97° East  Level FlightAware Approximate
Sat 12:05:00 AM 58.9351 -28.9863 97° East  Level FlightAware Approximate
Sat 12:06:00 AM 58.9175 -28.7311 98° East  Level FlightAware Approximate
Sat 12:07:00 AM 58.8994 -28.4762 98° East  Level FlightAware Approximate
Sat 12:08:00 AM 58.8808 -28.2216 98° East  Level FlightAware Approximate
Sat 12:09:00 AM 58.8617 -27.9672 98° East  Level FlightAware Approximate
Sat 12:10:00 AM 58.8420 -27.7132 98° East  Level FlightAware Approximate
Sat 12:11:00 AM 58.8219 -27.4594 99° East  Level FlightAware Approximate
Sat 12:12:00 AM 58.8013 -27.2059 99° East  Level FlightAware Approximate
Sat 12:13:00 AM 58.7802 -26.9527 99° East  Level FlightAware Approximate
Sat 12:14:00 AM 58.7586 -26.6999 99° East  Level FlightAware Approximate
Sat 12:15:00 AM 58.7365 -26.4473 99° East  Level FlightAware Approximate
Sat 12:16:00 AM 58.7139 -26.1951 100° East  Level FlightAware Approximate
Sat 12:17:00 AM 58.6908 -25.9432 100° East  Level FlightAware Approximate
Sat 12:18:00 AM 58.6673 -25.6917 100° East  Level FlightAware Approximate
Sat 12:19:00 AM 58.6432 -25.4405 100° East  Level FlightAware Approximate
Sat 12:20:00 AM 58.6187 -25.1896 101° East  Level FlightAware Approximate
Sat 12:21:00 AM 58.5936 -24.9391 101° East  Level FlightAware Approximate
Sat 12:22:00 AM 58.5681 -24.6890 101° East  Level FlightAware Approximate
Sat 12:23:00 AM 58.5421 -24.4392 101° East  Level FlightAware Approximate
Sat 12:24:00 AM 58.5156 -24.1898 101° East  Level FlightAware Approximate
Sat 12:25:00 AM 58.4892 -23.9406 101° East  Level FlightAware Approximate
Sat 12:26:00 AM 58.4622 -23.6917 102° East  Level FlightAware Approximate
Sat 12:27:00 AM 58.4348 -23.4433 102° East  Level FlightAware Approximate
Sat 12:28:00 AM 58.4069 -23.1952 102° East  Level FlightAware Approximate
Sat 12:29:00 AM 58.3785 -22.9475 102° East  Level FlightAware Approximate
Sat 12:30:00 AM 58.3497 -22.7002 102° East  Level FlightAware Approximate
Sat 12:31:00 AM 58.3203 -22.4534 103° East  Level FlightAware Approximate
Sat 12:32:00 AM 58.2905 -22.2069 103° East  Level FlightAware Approximate
Sat 12:33:00 AM 58.2603 -21.9609 103° East  Level FlightAware Approximate
Sat 12:34:00 AM 58.2295 -21.7152 103° East  Level FlightAware Approximate
Sat 12:35:00 AM 58.1983 -21.4701 103° East  Level FlightAware Approximate
Sat 12:36:00 AM 58.1666 -21.2253 104° East  Level FlightAware Approximate
Sat 12:37:00 AM 58.1344 -20.9805 104° East  Level FlightAware Approximate
Sat 12:38:00 AM 58.1017 -20.7361 104° East  Level FlightAware Approximate
Sat 12:39:00 AM 58.0685 -20.4922 104° East  Level FlightAware Approximate
Sat 12:40:00 AM 58.0349 -20.2488 105° East  Level FlightAware Approximate
Sat 12:41:00 AM 58.0008 -20.0058 105° East  Level FlightAware Approximate
Sat 12:42:00 AM 57.9810 -19.7575 98° East  Level FlightAware Approximate
Sat 12:43:00 AM 57.9610 -19.5093 99° East  Level FlightAware Approximate
Sat 12:44:00 AM 57.9406 -19.2614 99° East  Level FlightAware Approximate
Sat 12:45:00 AM 57.9197 -19.0137 99° East  Level FlightAware Approximate
Sat 12:46:00 AM 57.8983 -18.7664 99° East  Level FlightAware Approximate
Sat 12:47:00 AM 57.8764 -18.5193 99° East  Level FlightAware Approximate
Sat 12:48:00 AM 57.8540 -18.2726 100° East  Level FlightAware Approximate
Sat 12:49:00 AM 57.8312 -18.0261 100° East  Level FlightAware Approximate
Sat 12:50:00 AM 57.8079 -17.7800 100° East  Level FlightAware Approximate
Sat 12:51:00 AM 57.7841 -17.5342 100° East  Level FlightAware Approximate
Sat 12:52:00 AM 57.7598 -17.2882 100° East  Level FlightAware Approximate
Sat 12:53:00 AM 57.7350 -17.0426 101° East  Level FlightAware Approximate
Sat 12:54:00 AM 57.7097 -16.7973 101° East  Level FlightAware Approximate
Sat 12:55:00 AM 57.6840 -16.5524 101° East  Level FlightAware Approximate
Sat 12:56:00 AM 57.6577 -16.3078 101° East  Level FlightAware Approximate
Sat 12:57:00 AM 57.6311 -16.0635 101° East  Level FlightAware Approximate
Sat 12:58:00 AM 57.6039 -15.8196 102° East  Level FlightAware Approximate
Sat 12:59:00 AM 57.5763 -15.5761 102° East  Level FlightAware Approximate
Sat 01:00:00 AM 57.5482 -15.3330 102° East  Level FlightAware Approximate
Sat 01:01:00 AM 57.5196 -15.0902 102° East  Level FlightAware Approximate
Sat 01:02:00 AM 57.4906 -14.8478 102° East  Level FlightAware Approximate
Sat 01:03:00 AM 57.4611 -14.6059 103° East  Level FlightAware Approximate
Sat 01:03:37 AM 56.7020 -11.7310 103° East 473 544 37,000  Level FlightAware ADS-B
Sat 01:04:00 AM 57.4312 -14.3643 103° East  Level FlightAware Approximate
Sat 01:04:17 AM 56.6850 -11.5740 101° East 473 544 37,000  Level FlightAware ADS-B
Sat 01:04:57 AM 56.6700 -11.4270 100° East 473 544 37,000  Level FlightAware ADS-B
Sat 01:05:42 AM 56.6500 -11.2430 101° East 472 543 37,000  Level FlightAware ADS-B
Sat 01:06:22 AM 56.6330 -11.0860 101° East 472 543 37,000  Level FlightAware ADS-B
Sat 01:07:07 AM 56.6140 -10.9110 101° East 470 541 37,000  Level FlightAware ADS-B
Sat 01:07:47 AM 56.5960 -10.7520 102° East 468 539 37,000  Level FlightAware ADS-B
Sat 01:09:27 AM 56.5540 -10.3830 102° East 466 536 37,000  Level FlightAware ADS-B
Sat 01:10:07 AM 56.5320 -10.2280 104° East 470 541 37,000  Level FlightAware ADS-B
Sat 01:10:47 AM 56.5080 -10.0730 106° East 471 542 37,000  Level FlightAware ADS-B
Sat 01:11:32 AM 56.4820 -9.9010 105° East 475 547 37,000  Level FlightAware ADS-B
Sat 01:12:12 AM 56.4570 -9.7460 106° East 473 544 37,000  Level FlightAware ADS-B
Sat 01:12:57 AM 56.4290 -9.5800 107° East 471 542 37,000  Level FlightAware ADS-B
Sat 01:13:37 AM 56.4040 -9.4290 107° East 472 543 37,000  Level FlightAware ADS-B
Sat 01:14:17 AM 56.3780 -9.2700 106° East 470 541 37,000  Level FlightAware ADS-B
Sat 01:15:02 AM 56.3500 -9.1000 106° East 471 542 37,000 -1,343 Level FlightAware ADS-B
Sat 01:15:24 AM 56.3237 -8.9990 106° East 464 534 35,500 -2,250 Descending FlightAware UK
Sat 01:15:42 AM 56.3125 -8.9308 106° East 460 529 35,500 5,000 Level FlightAware UK
Sat 01:15:42 AM 56.3280 -8.9610 106° East 472 543 37,000 -333 Climbing FlightAware ADS-B
Sat 01:16:00 AM 56.3011 -8.8633 106° East 460 529 35,400 -2,667 Descending FlightAware UK
Sat 01:16:18 AM 56.2898 -8.7956 107° East 460 529 35,400 4,364 Level FlightAware UK
Sat 01:16:22 AM 56.3030 -8.8100 107° East 472 543 37,000  Climbing FlightAware ADS-B
Sat 01:16:42 AM 56.2747 -8.7046 107° East 460 529 35,400 -2,368 Descending FlightAware UK
Sat 01:17:00 AM 56.2633 -8.6368 107° East 462 532 35,500 3,840 Climbing FlightAware UK
Sat 01:17:07 AM 56.2750 -8.6400 107° East 470 541 37,000  Climbing FlightAware ADS-B
Sat 01:17:24 AM 56.2480 -8.5465 107° East 462 532 35,500 -2,571 Descending FlightAware UK
Sat 01:17:42 AM 56.2363 -8.4789 107° East 462 532 35,500 3,913 Level FlightAware UK
Sat 01:17:47 AM 56.2500 -8.4910 107° East 472 543 37,000  Climbing FlightAware ADS-B
Sat 01:18:06 AM 56.2208 -8.3888 107° East 462 532 35,500 -2,432 Descending FlightAware UK
Sat 01:18:24 AM 56.2091 -8.3213 107° East 462 532 35,500 3,462 Level FlightAware UK
Sat 01:18:32 AM 56.2210 -8.3210 107° East 472 543 37,000  Climbing FlightAware ADS-B
Sat 01:18:48 AM 56.1935 -8.2310 107° East 460 529 35,500 -2,647 Descending FlightAware UK
Sat 01:19:06 AM 56.1816 -8.1624 107° East 460 529 35,500 3,750 Level FlightAware UK
Sat 01:19:12 AM 56.1960 -8.1710 107° East 473 544 37,000  Climbing FlightAware ADS-B
Sat 01:19:30 AM 56.1656 -8.0721 107° East 462 532 35,500 -2,500 Descending FlightAware UK
Sat 01:19:48 AM 56.1537 -8.0041 107° East 462 532 35,500 3,333 Level FlightAware UK
Sat 01:19:57 AM 56.1660 -8.0030 107° East 478 550 37,000  Climbing FlightAware ADS-B
Sat 01:20:12 AM 56.1374 -7.9137 107° East 468 539 35,500 -2,727 Descending FlightAware UK
Sat 01:20:30 AM 56.1251 -7.8458 108° East 466 536 35,500 3,600 Level FlightAware UK
Sat 01:20:37 AM 56.1400 -7.8530 108° East 480 552 37,000  Climbing FlightAware ADS-B
Sat 01:20:54 AM 56.1087 -7.7546 108° East 470 541 35,500 -2,571 Descending FlightAware UK
Sat 01:21:12 AM 56.0967 -7.6873 108° East 468 539 35,500 3,913 Level FlightAware UK
Sat 01:21:17 AM 56.1130 -7.7000 108° East 480 552 37,000 -250 Climbing FlightAware ADS-B
Sat 01:21:36 AM 56.0803 -7.5967 108° East 466 536 35,400 -2,432 Descending FlightAware UK
Sat 01:21:54 AM 56.0679 -7.5280 108° East 466 536 35,500 3,692 Climbing FlightAware UK
Sat 01:22:02 AM 56.0820 -7.5280 108° East 481 554 37,000  Climbing FlightAware ADS-B
Sat 01:22:18 AM 56.0517 -7.4373 108° East 470 541 35,500 -2,647 Descending FlightAware UK
Sat 01:22:36 AM 56.0395 -7.3693 108° East 472 543 35,500 3,750 Level FlightAware UK
Sat 01:22:42 AM 56.0570 -7.3820 108° East 482 555 37,000  Climbing FlightAware ADS-B
Sat 01:23:00 AM 56.0228 -7.2789 108° East 474 545 35,500 -2,500 Descending FlightAware UK
Sat 01:23:18 AM 56.0104 -7.2111 108° East 472 543 35,500 4,091 Level FlightAware UK
Sat 01:23:22 AM 56.0290 -7.2280 108° East 481 554 37,000  Climbing FlightAware ADS-B
Sat 01:23:42 AM 55.9937 -7.1208 108° East 472 543 35,500 -2,368 Descending FlightAware UK
Sat 01:24:00 AM 55.9813 -7.0532 108° East 472 543 35,500 3,600 Level FlightAware UK
Sat 01:24:07 AM 55.9980 -7.0560 108° East 479 551 37,000  Climbing FlightAware ADS-B
Sat 01:24:24 AM 55.9653 -6.9632 108° East 474 545 35,500 -2,571 Descending FlightAware UK
Sat 01:24:42 AM 55.9535 -6.8957 107° East 472 543 35,500 3,913 Level FlightAware UK
Sat 01:24:47 AM 55.9720 -6.9080 107° East 476 548 37,000  Climbing FlightAware ADS-B
Sat 01:25:06 AM 55.9376 -6.8050 107° East 472 543 35,500 -2,595 Descending FlightAware UK
Sat 01:25:24 AM 55.9257 -6.7385 108° East 468 539 35,400 3,462 Descending FlightAware UK
Sat 01:25:32 AM 55.9420 -6.7360 108° East 479 551 37,000 250 Climbing FlightAware ADS-B
Sat 01:25:48 AM 55.9095 -6.6488 108° East 466 536 35,500 -2,647 Descending FlightAware UK
Sat 01:26:06 AM 55.8973 -6.5816 108° East 468 539 35,500 3,750 Level FlightAware UK
Sat 01:26:12 AM 55.9160 -6.5880 108° East 481 554 37,000  Climbing FlightAware ADS-B
Sat 01:26:30 AM 55.8809 -6.4918 108° East 470 541 35,500 -2,500 Descending FlightAware UK
Sat 01:26:48 AM 55.8682 -6.4236 108° East 470 541 35,500 4,091 Level FlightAware UK
Sat 01:26:52 AM 55.8890 -6.4420 108° East 480 552 37,000  Climbing FlightAware ADS-B
Sat 01:27:12 AM 55.8512 -6.3345 108° East 470 541 35,500 -2,368 Descending FlightAware UK
Sat 01:27:30 AM 55.8377 -6.2674 110° East 466 536 35,500 4,500 Level FlightAware UK
Sat 01:27:32 AM 55.8590 -6.2860 110° East 483 556 37,000  Climbing FlightAware ADS-B
Sat 01:27:48 AM 55.8237 -6.2003 110° East 468 539 35,500 -2,647 Descending FlightAware UK
Sat 01:28:06 AM 55.8100 -6.1326 110° East 474 545 35,500 3,103 Level FlightAware UK
Sat 01:28:17 AM 55.8240 -6.1080 110° East 483 556 37,000  Climbing FlightAware ADS-B
Sat 01:28:36 AM 55.7880 -6.0208 110° East 474 545 35,500 -2,432 Descending FlightAware UK
Sat 01:28:54 AM 55.7746 -5.9538 110° East 476 548 35,500 4,286 Level FlightAware UK
Sat 01:28:57 AM 55.7950 -5.9610 110° East 480 552 37,000  Climbing FlightAware ADS-B
Sat 01:29:12 AM 55.7615 -5.8868 110° East 472 543 35,500 -2,727 Descending FlightAware UK
Sat 01:29:30 AM 55.7485 -5.8198 109° East 474 545 35,500 3,000 Level FlightAware UK
Sat 01:29:42 AM 55.7630 -5.7950 109° East 480 552 37,000  Climbing FlightAware ADS-B
Sat 01:30:00 AM 55.7269 -5.7083 109° East 476 548 35,500 -2,500 Descending FlightAware UK
Sat 01:30:18 AM 55.7138 -5.6416 109° East 474 545 35,500 4,091 Level FlightAware UK
Sat 01:30:22 AM 55.7330 -5.6430 109° East 479 551 37,000  Climbing FlightAware ADS-B
Sat 01:30:37 AM 55.7007 -5.5741 109° East 474 545 35,500  Descending FlightAware UK
Sat 01:30:57 AM 55.7110 -5.5270 109° East 479 551 37,000  Climbing FlightAware ADS-B
Sat 01:31:00 AM 55.6837 -5.4859 109° East 476 548 35,500 -6,000 Descending FlightAware UK
Sat 01:31:12 AM 55.6751 -5.4415 109° East 470 541 35,500  Level FlightAware UK
Sat 01:31:30 AM 55.6622 -5.3747 109° East 472 543 35,500  Level FlightAware UK
Sat 01:31:48 AM 55.6493 -5.3077 109° East 472 543 35,500 2,813 Level FlightAware UK
Sat 01:32:02 AM 55.6650 -5.2870 109° East 482 555 37,000 -194 Climbing FlightAware ADS-B
Sat 01:32:19 AM 55.6277 -5.1952 109° East 472 543 35,400 -2,647 Descending FlightAware UK
Sat 01:32:36 AM 55.6148 -5.1288 109° East 472 543 35,500 4,174 Climbing FlightAware UK
Sat 01:32:42 AM 55.6350 -5.1320 109° East 485 558 37,000  Climbing FlightAware ADS-B
Sat 01:33:00 AM 55.5969 -5.0396 109° East 470 541 35,500  Descending FlightAware UK
Sat 01:33:27 AM 55.5990 -4.9480 109° East 488 562 37,000  Climbing FlightAware ADS-B
Sat 01:33:42 AM 55.5656 -4.8829 109° East 480 552 35,500 -2,647 Descending FlightAware UK
Sat 01:34:01 AM 55.5528 -4.8147 108° East 476 548 35,500 3,600 Level FlightAware UK
Sat 01:34:07 AM 55.5700 -4.7990 108° East 484 557 37,000  Climbing FlightAware ADS-B
Sat 01:34:25 AM 55.5357 -4.7251 108° East 476 548 35,500 -2,500 Descending FlightAware UK
Sat 01:34:43 AM 55.5228 -4.6581 109° East 476 548 35,500 3,333 Level FlightAware UK
Sat 01:34:52 AM 55.5370 -4.6290 109° East 488 562 37,000  Climbing FlightAware ADS-B
Sat 01:35:07 AM 55.5051 -4.5687 109° East 482 555 35,500 -2,727 Descending FlightAware UK
Sat 01:35:25 AM 55.4922 -4.5008 109° East 478 550 35,500 3,600 Level FlightAware UK
Sat 01:35:32 AM 55.5080 -4.4780 109° East 486 559 37,000 -250 Climbing FlightAware ADS-B
Sat 01:35:49 AM 55.4747 -4.4127 109° East 474 545 35,400 -2,571 Descending FlightAware UK
Sat 01:36:07 AM 55.4613 -4.3451 109° East 478 550 35,500 4,174 Climbing FlightAware UK
Sat 01:36:12 AM 55.4790 -4.3320 109° East 482 555 37,000  Climbing FlightAware ADS-B
Sat 01:36:31 AM 55.4442 -4.2560 109° East 478 550 35,500 -2,432 Descending FlightAware UK
Sat 01:36:49 AM 55.4301 -4.1898 111° Southeast 478 550 35,500 3,462 Level FlightAware UK
Sat 01:36:57 AM 55.4440 -4.1590 111° Southeast 486 559 37,000  Climbing FlightAware ADS-B
Sat 01:37:13 AM 55.4105 -4.1021 111° Southeast 480 552 35,500 -2,647 Descending FlightAware UK
Sat 01:37:31 AM 55.3954 -4.0359 112° Southeast 478 550 35,500 3,103 Level FlightAware UK
Sat 01:37:42 AM 55.4080 -3.9990 112° Southeast 485 558 37,000  Climbing FlightAware ADS-B
Sat 01:38:07 AM 55.3665 -3.9059 112° Southeast 474 545 35,500  Descending FlightAware UK
Sat 01:38:22 AM 55.3750 -3.8490 112° Southeast 483 556 37,000  Climbing FlightAware ADS-B
Sat 01:38:49 AM 55.3328 -3.7525 112° Southeast 470 541 35,500  Descending FlightAware UK
Sat 01:39:02 AM 55.3430 -3.7050 112° Southeast 484 557 37,000 -200 Climbing FlightAware ADS-B
Sat 01:39:19 AM 55.3090 -3.6442 112° Southeast 468 539 35,400 -2,195 Descending FlightAware UK
Sat 01:39:43 AM 55.2896 -3.5577 111° Southeast 468 539 35,500 3,429 Climbing FlightAware UK
Sat 01:39:47 AM 55.3070 -3.5410 111° Southeast 483 556 37,000  Climbing FlightAware ADS-B
Sat 01:40:07 AM 55.2700 -3.4704 111° Southeast 468 539 35,500  Descending FlightAware UK
Sat 01:40:27 AM 55.2740 -3.3970 111° Southeast 485 558 37,000  Climbing FlightAware ADS-B
Sat 01:40:43 AM 55.2405 -3.3401 111° Southeast 476 548 35,500  Descending FlightAware UK
Sat 01:40:57 AM 55.2490 -3.2850 111° Southeast 485 558 37,000  Climbing FlightAware ADS-B
Sat 01:41:13 AM 55.2162 -3.2312 111° Southeast 472 543 35,500 -2,647 Descending FlightAware UK
Sat 01:41:31 AM 55.2011 -3.1662 112° Southeast 470 541 35,500 3,103 Level FlightAware UK
Sat 01:41:42 AM 55.2120 -3.1220 112° Southeast 486 559 37,000  Climbing FlightAware ADS-B
Sat 01:42:01 AM 55.1761 -3.0569 112° Southeast 474 545 35,500  Descending FlightAware UK
Sat 01:42:22 AM 55.1780 -2.9760 112° Southeast 484 557 37,000  Climbing FlightAware ADS-B
Sat 01:42:49 AM 55.1361 -2.8834 112° Southeast 476 548 35,500  Descending FlightAware UK
Sat 01:43:02 AM 55.1440 -2.8310 112° Southeast 484 557 37,000  Climbing FlightAware ADS-B
Sat 01:43:19 AM 55.1106 -2.7744 112° Southeast 478 550 35,500 -2,571 Descending FlightAware UK
Sat 01:43:37 AM 55.0953 -2.7094 112° Southeast 478 550 35,500 3,214 Level FlightAware UK
Sat 01:43:47 AM 55.1060 -2.6660 112° Southeast 487 560 37,000  Climbing FlightAware ADS-B
Sat 01:44:02 AM 55.0750 -2.6219 112° Southeast 480 552 35,500 -2,909 Descending FlightAware UK
Sat 01:44:20 AM 55.0599 -2.5567 112° Southeast 478 550 35,400 4,500 Descending FlightAware UK
Sat 01:44:22 AM 55.0760 -2.5400 112° Southeast 485 558 37,000 353 Climbing FlightAware ADS-B
Sat 01:44:37 AM 55.0447 -2.4924 112° Southeast 480 552 35,500 -2,727 Descending FlightAware UK
Sat 01:44:55 AM 55.0294 -2.4271 112° Southeast 482 555 35,500 3,000 Level FlightAware UK
Sat 01:45:07 AM 55.0370 -2.3770 112° Southeast 486 559 37,000  Climbing FlightAware ADS-B
Sat 01:45:26 AM 55.0034 -2.3181 112° Southeast 476 548 35,500  Descending FlightAware UK
Sat 01:45:42 AM 55.0070 -2.2500 112° Southeast 486 559 37,000 -167 Climbing FlightAware ADS-B
Sat 01:46:02 AM 54.9726 -2.1881 112° Southeast 474 545 35,400 -2,368 Descending FlightAware UK
Sat 01:46:20 AM 54.9572 -2.1231 112° Southeast 480 552 35,500 3,200 Climbing FlightAware UK
Sat 01:46:32 AM 54.9630 -2.0680 112° Southeast 491 565 37,000  Climbing FlightAware ADS-B
Sat 01:47:02 AM 54.9207 -1.9715 112° Southeast 480 552 35,500  Descending FlightAware UK
Sat 01:47:17 AM 54.9260 -1.9150 112° Southeast 491 565 37,000  Climbing FlightAware ADS-B
Sat 01:47:32 AM 54.8945 -1.8623 112° Southeast 476 548 35,500 -2,727 Descending FlightAware UK
Sat 01:47:50 AM 54.8785 -1.7974 113° Southeast 480 552 35,500 3,600 Level FlightAware UK
Sat 01:47:57 AM 54.8890 -1.7620 113° Southeast 492 566 37,000  Climbing FlightAware ADS-B
Sat 01:48:26 AM 54.8469 -1.6673 113° Southeast 482 555 35,500  Descending FlightAware UK
Sat 01:48:37 AM 54.8540 -1.6220 113° Southeast 492 566 37,000  Climbing FlightAware ADS-B
Sat 01:49:02 AM 54.8149 -1.5368 113° Southeast 480 552 35,500  Descending FlightAware UK
Sat 01:49:22 AM 54.8130 -1.4560 113° Southeast 490 564 37,000  Climbing FlightAware ADS-B
Sat 01:49:50 AM 54.7723 -1.3646 113° Southeast 482 555 35,500  Descending FlightAware UK
Sat 01:50:02 AM 54.7760 -1.3070 113° Southeast 491 565 37,000  Climbing FlightAware ADS-B
Sat 01:50:20 AM 54.7453 -1.2573 113° Southeast 482 555 35,500  Descending FlightAware UK
Sat 01:50:47 AM 54.7360 -1.1520 113° Southeast 491 565 37,000  Climbing FlightAware ADS-B
Sat 01:51:02 AM 54.7076 -1.1071 113° Southeast 478 550 35,500  Descending FlightAware UK
Sat 01:51:27 AM 54.6980 -1.0030 113° Southeast 491 565 37,000  Climbing FlightAware ADS-B
Sat 01:51:44 AM 54.6693 -0.9566 113° Southeast 480 552 35,500  Descending FlightAware UK
Sat 01:52:07 AM 54.6610 -0.8600 113° Southeast 491 565 37,000  Climbing FlightAware ADS-B
Sat 01:52:26 AM 54.6309 -0.8064 113° Southeast 478 550 35,500 -2,432 Descending FlightAware UK
Sat 01:52:44 AM 54.6143 -0.7425 114° Southeast 478 550 35,500 3,462 Level FlightAware UK
Sat 01:52:52 AM 54.6200 -0.7030 114° Southeast 491 565 37,000  Climbing FlightAware ADS-B
Sat 01:53:08 AM 54.5924 -0.6580 114° Southeast 482 555 35,500 -2,647 Descending FlightAware UK
Sat 01:53:26 AM 54.5758 -0.5934 114° Southeast 484 557 35,500 3,750 Level FlightAware UK
Sat 01:53:32 AM 54.5820 -0.5560 114° Southeast 491 565 37,000  Climbing FlightAware ADS-B
Sat 01:53:56 AM 54.5483 -0.4869 114° Southeast 484 557 35,500  Descending FlightAware UK
Sat 01:54:17 AM 54.5410 -0.3990 114° Southeast 489 563 37,000  Climbing FlightAware ADS-B
Sat 01:54:32 AM 54.5154 -0.3596 114° Southeast 482 555 35,500  Descending FlightAware UK
Sat 01:54:57 AM 54.5050 -0.2610 114° Southeast 487 560 37,000  Climbing FlightAware ADS-B
Sat 01:55:21 AM 54.4715 -0.1897 114° Southeast 482 555 35,500  Descending FlightAware UK
Sat 01:55:42 AM 54.4630 -0.1020 114° Southeast 487 560 37,000  Climbing FlightAware ADS-B
Sat 01:55:57 AM 54.4382 -0.0628 114° Southeast 482 555 35,500  Descending FlightAware UK
Sat 01:56:22 AM 54.4240 0.0450 114° Southeast 486 559 37,000  Climbing FlightAware ADS-B
Sat 01:56:45 AM 54.3936 0.1048 114° Southeast 480 552 35,500  Descending FlightAware UK
Sat 01:56:57 AM 54.3920 0.1640 114° Southeast 486 559 37,000  Climbing FlightAware ADS-B
Sat 01:57:15 AM 54.3658 0.2094 114° Southeast 482 555 35,500 -2,500 Descending FlightAware UK
Sat 01:57:33 AM 54.3490 0.2721 115° Southeast 482 555 35,500 2,813 Level FlightAware UK
Sat 01:57:47 AM 54.3440 0.3380 115° Southeast 484 557 37,000  Climbing FlightAware ADS-B
Sat 01:58:03 AM 54.3207 0.3770 115° Southeast 480 552 35,500 -2,647 Descending FlightAware UK
Sat 01:58:21 AM 54.3042 0.4387 115° Southeast 476 548 35,500 3,750 Level FlightAware UK
Sat 01:58:27 AM 54.3070 0.4780 115° Southeast 484 557 37,000  Climbing FlightAware ADS-B
Sat 01:58:45 AM 54.2818 0.5219 115° Southeast 476 548 35,500  Descending FlightAware UK
Sat 01:59:07 AM 54.2690 0.6160 115° Southeast 484 557 37,000  Climbing FlightAware ADS-B
Sat 01:59:33 AM 54.2368 0.6886 115° Southeast 474 545 35,500  Descending FlightAware UK
Sat 01:59:52 AM 54.2250 0.7750 115° Southeast 483 556 37,000  Climbing FlightAware ADS-B
Sat 02:00:09 AM 54.2027 0.8134 115° Southeast 474 545 35,500 -2,571 Descending FlightAware UK
Sat 02:00:27 AM 54.1859 0.8747 115° Southeast 474 545 35,500 3,913 Level FlightAware UK
Sat 02:00:32 AM 54.1880 0.9090 115° Southeast 484 557 37,000  Climbing FlightAware ADS-B
Sat 02:00:51 AM 54.1630 0.9573 115° Southeast 474 545 35,500 -2,432 Descending FlightAware UK
Sat 02:01:09 AM 54.1457 1.0202 115° Southeast 474 545 35,500 4,286 Level FlightAware UK
Sat 02:01:12 AM 54.1520 1.0380 115° Southeast 485 558 37,000  Climbing FlightAware ADS-B
Sat 02:01:27 AM 54.1286 1.0823 115° Southeast 474 545 35,500 -2,308 Descending FlightAware UK
Sat 02:01:51 AM 54.1054 1.1659 115° Southeast 474 545 35,500 3,000 Level FlightAware UK
Sat 02:01:57 AM 54.1090 1.1900 115° Southeast 487 560 37,000  Climbing FlightAware ADS-B
Sat 02:02:15 AM 54.0826 1.2481 115° Southeast 476 548 35,500 -2,500 Descending FlightAware UK
Sat 02:02:33 AM 54.0650 1.3110 115° Southeast 478 550 35,500 3,333 Level FlightAware UK
Sat 02:02:42 AM 54.0620 1.3580 115° Southeast 488 562 37,000  Climbing FlightAware ADS-B
Sat 02:02:57 AM 54.0416 1.3940 115° Southeast 482 555 35,500  Descending FlightAware UK
Sat 02:03:17 AM 54.0290 1.4730 115° Southeast 488 562 37,000  Climbing FlightAware ADS-B
Sat 02:03:40 AM 54.0003 1.5398 115° Southeast 482 555 35,500  Descending FlightAware UK
Sat 02:04:02 AM 53.9830 1.6350 115° Southeast 489 563 37,000  Climbing FlightAware ADS-B
Sat 02:04:28 AM 53.9533 1.7056 115° Southeast 480 552 35,500  Descending FlightAware UK
Sat 02:04:47 AM 53.9390 1.7870 115° Southeast 489 563 37,000  Climbing FlightAware ADS-B
Sat 02:05:04 AM 53.9178 1.8305 115° Southeast 480 552 35,500 -2,571 Descending FlightAware UK
Sat 02:05:22 AM 53.8999 1.8923 116° Southeast 484 557 35,500 5,000 Level FlightAware UK
Sat 02:05:22 AM 53.9050 1.9060 116° Southeast 488 562 37,000  Climbing FlightAware ADS-B
Sat 02:05:40 AM 53.8822 1.9533 116° Southeast 484 557 35,500 -2,500 Descending FlightAware UK
Sat 02:05:58 AM 53.8641 2.0157 116° Southeast 484 557 35,500 3,333 Level FlightAware UK
Sat 02:06:07 AM 53.8590 2.0630 116° Southeast 487 560 37,000  Climbing FlightAware ADS-B
Sat 02:06:22 AM 53.8400 2.0986 116° Southeast 486 559 35,500 -2,308 Descending FlightAware UK
Sat 02:06:46 AM 53.8161 2.1804 116° Southeast 482 555 35,500 3,000 Level FlightAware UK
Sat 02:06:52 AM 53.8160 2.2090 116° Southeast 486 559 37,000  Climbing FlightAware ADS-B
Sat 02:07:10 AM 53.7924 2.2614 116° Southeast 482 555 35,500 -2,500 Descending FlightAware UK
Sat 02:07:28 AM 53.7744 2.3234 116° Southeast 486 559 35,500 4,091 Level FlightAware UK
Sat 02:07:32 AM 53.7760 2.3460 116° Southeast 485 558 37,000  Climbing FlightAware ADS-B
Sat 02:07:58 AM 53.7445 2.4250 116° Southeast 486 559 35,500  Descending FlightAware UK
Sat 02:08:17 AM 53.7300 2.5020 116° Southeast 482 555 37,000  Climbing FlightAware ADS-B
Sat 02:08:40 AM 53.7024 2.5673 116° Southeast 484 557 35,500  Descending FlightAware UK
Sat 02:08:57 AM 53.6890 2.6370 116° Southeast 482 555 37,000  Climbing FlightAware ADS-B
Sat 02:09:28 AM 53.6546 2.7284 116° Southeast 484 557 35,500  Descending FlightAware UK
Sat 02:09:32 AM 53.6540 2.7570 116° Southeast 480 552 37,000  Climbing FlightAware ADS-B
Sat 02:09:52 AM 53.6309 2.8088 116° Southeast 482 555 35,500  Descending FlightAware UK
Sat 02:10:17 AM 53.6110 2.9010 116° Southeast 478 550 37,000  Climbing FlightAware ADS-B
Sat 02:10:34 AM 53.5891 2.9486 116° Southeast 480 552 35,500  Descending FlightAware UK
Sat 02:11:02 AM 53.5690 3.0400 116° Southeast 472 543 37,000  Climbing FlightAware ADS-B
Sat 02:11:22 AM 53.5411 3.1077 116° Southeast 478 550 35,500 -2,308 Descending FlightAware UK
Sat 02:11:41 AM 53.5229 3.1675 117° Southeast 478 550 35,500 4,500 Level FlightAware UK
Sat 02:11:42 AM 53.5270 3.1760 117° Southeast 470 541 37,000  Climbing FlightAware ADS-B
Sat 02:12:23 AM 53.4813 3.3052 117° Southeast 474 545 35,500  Descending FlightAware UK
Sat 02:12:57 AM 53.4500 3.4280 117° Southeast 473 544 37,000  Climbing FlightAware ADS-B
Sat 02:13:17 AM 53.4274 3.4815 117° Southeast 470 541 35,500  Descending FlightAware UK
Sat 02:13:37 AM 53.4100 3.5550 117° Southeast 471 542 37,000  Climbing FlightAware ADS-B
Sat 02:13:59 AM 53.3791 3.6125 117° Southeast 474 545 35,500  Descending FlightAware UK
Sat 02:14:17 AM 53.3600 3.6740 117° Southeast 468 539 37,000  Climbing FlightAware ADS-B
Sat 02:14:41 AM 53.3231 3.7325 117° Southeast 478 550 35,500 -2,143 Descending FlightAware UK
Sat 02:14:59 AM 53.2989 3.7828 129° Southeast 478 550 35,500 4,286 Level FlightAware UK
Sat 02:15:02 AM 53.2970 3.8060 129° Southeast 467 537 37,000  Climbing FlightAware ADS-B
Sat 02:15:17 AM 53.2741 3.8341 129° Southeast 480 552 35,500  Descending FlightAware UK
Sat 02:15:42 AM 53.2460 3.9100 129° Southeast 466 536 37,000  Climbing FlightAware ADS-B
Sat 02:16:17 AM 53.1925 4.0027 129° Southeast 478 550 35,500  Descending FlightAware UK
Sat 02:16:27 AM 53.1840 4.0390 129° Southeast 465 535 37,000  Climbing FlightAware ADS-B
Sat 02:16:53 AM 53.1437 4.1037 129° Southeast 478 550 35,500  Descending FlightAware UK
Sat 02:17:07 AM 53.1290 4.1530 129° Southeast 465 535 37,000  Climbing FlightAware ADS-B
Sat 02:17:29 AM 53.0948 4.2045 129° Southeast 480 552 35,500  Descending FlightAware UK
Sat 02:17:52 AM 53.0700 4.2750 129° Southeast 464 534 37,000  Climbing FlightAware ADS-B
Sat 02:18:23 AM 53.0220 4.3551 129° Southeast 484 557 35,500  Descending FlightAware UK
Sat 02:18:32 AM 53.0140 4.3890 129° Southeast 463 533 37,000  Climbing FlightAware ADS-B
Sat 02:19:05 AM 52.9646 4.4709 129° Southeast 480 552 35,500  Descending FlightAware UK
Sat 02:19:12 AM 52.9610 4.4970 129° Southeast 461 531 37,000 1,915 Climbing FlightAware ADS-B
Sat 02:19:52 AM 52.9080 4.6050 129° Southeast 461 531 37,000 -1,385 Level FlightAware ADS-B
Sat 02:20:17 AM 52.8674 4.6686 129° Southeast 476 548 35,500  Descending FlightAware UK
Sat 02:20:37 AM 52.8500 4.7230 129° Southeast 460 529 37,000  Climbing FlightAware ADS-B
Sat 02:20:59 AM 52.8105 4.7839 129° Southeast 476 548 35,500 -2,250 Descending FlightAware UK
Sat 02:21:17 AM 52.7867 4.8334 128° Southeast 474 545 35,500 3,913 Level FlightAware UK
Sat 02:21:22 AM 52.7890 4.8460 128° Southeast 459 528 37,000  Climbing FlightAware ADS-B
Sat 02:21:41 AM 52.7542 4.8990 128° Southeast 476 548 35,500 -2,432 Descending FlightAware UK
Sat 02:21:59 AM 52.7300 4.9481 129° Southeast 478 550 35,500 4,286 Level FlightAware UK
Sat 02:22:02 AM 52.7320 4.9600 129° Southeast 459 528 37,000 2,093 Climbing FlightAware ADS-B
Sat 02:22:42 AM 52.6790 5.0680 129° Southeast 458 527 37,000  Level FlightAware ADS-B
Sat 02:23:27 AM 52.6230 5.1780 130° Southeast 456 525 37,000  Level FlightAware ADS-B
Sat 02:24:07 AM 52.5630 5.2780 135° Southeast 451 519 37,000  Level FlightAware ADS-B
Sat 02:24:52 AM 52.4930 5.3840 137° Southeast 450 518 37,000 -1,184 Level FlightAware ADS-B
Sat 02:25:23 AM 52.4304 5.4582 137° Southeast 474 545 35,500  Descending FlightAware UK
Sat 02:25:32 AM 52.4300 5.4790 137° Southeast 451 519 37,000 1,667 Climbing FlightAware ADS-B
Sat 02:26:17 AM 52.3630 5.5800 137° Southeast 451 519 37,000 -1,304 Level FlightAware ADS-B
Sat 02:26:41 AM 52.3103 5.6392 137° Southeast 474 545 35,500  Descending FlightAware UK
Sat 02:26:52 AM 52.3050 5.6670 137° Southeast 451 519 37,000  Climbing FlightAware ADS-B
Sat 02:27:23 AM 52.2453 5.7372 137° Southeast 474 545 35,500  Descending FlightAware UK
Sat 02:27:37 AM 52.2370 5.7680 137° Southeast 452 520 37,000  Climbing FlightAware ADS-B
Sat 02:27:53 AM 52.1988 5.8064 137° Southeast 472 543 35,500  Descending FlightAware UK
Sat 02:28:22 AM 52.1710 5.8660 137° Southeast 452 520 37,000 1,304 Climbing FlightAware ADS-B
Sat 02:29:02 AM 52.1080 5.9590 138° Southeast 452 520 37,000  Level FlightAware ADS-B
Sat 02:29:42 AM 52.0470 6.0510 137° Southeast 452 520 37,000  Level FlightAware ADS-B
Sat 02:30:27 AM 51.9770 6.1540 138° Southeast 452 520 37,000  Level FlightAware ADS-B
Sat 02:31:07 AM 51.9160 6.2440 138° Southeast 452 520 37,000  Level FlightAware ADS-B
Sat 02:31:52 AM 51.8470 6.3460 138° Southeast 452 520 37,000  Level FlightAware ADS-B
Sat 02:32:32 AM 51.7850 6.4360 138° Southeast 453 521 37,000  Level FlightAware ADS-B
Sat 02:33:17 AM 51.7140 6.5400 138° Southeast 453 521 37,000  Level FlightAware ADS-B
Sat 02:33:57 AM 51.6520 6.6300 138° Southeast 453 521 37,000  Level FlightAware ADS-B
Sat 02:34:37 AM 51.5860 6.7240 138° Southeast 453 521 37,000  Level FlightAware ADS-B
Sat 02:35:22 AM 51.5220 6.8170 138° Southeast 454 522 37,000  Level FlightAware ADS-B
Sat 02:36:02 AM 51.4600 6.9060 138° Southeast 455 524 37,000  Level FlightAware ADS-B
Sat 02:36:42 AM 51.3940 6.9990 139° Southeast 456 525 37,000  Level FlightAware ADS-B
Sat 02:37:27 AM 51.3230 7.1010 138° Southeast 458 527 37,000  Level FlightAware ADS-B
Sat 02:38:07 AM 51.2590 7.1920 138° Southeast 458 527 37,000  Level FlightAware ADS-B
Sat 02:38:47 AM 51.1970 7.2800 138° Southeast 459 528 37,000  Level FlightAware ADS-B
Sat 02:39:32 AM 51.1270 7.3780 139° Southeast 459 528 37,000  Level FlightAware ADS-B
Sat 02:40:12 AM 51.0620 7.4710 138° Southeast 459 528 37,000  Level FlightAware ADS-B
Sat 02:40:52 AM 51.0030 7.5520 139° Southeast 457 526 37,000  Level FlightAware ADS-B
Sat 02:41:37 AM 50.9310 7.6530 139° Southeast 456 525 37,000  Level FlightAware ADS-B
Sat 02:42:17 AM 50.8690 7.7400 138° Southeast 454 522 37,000  Level FlightAware ADS-B
Sat 02:42:57 AM 50.8080 7.8230 139° Southeast 453 521 37,000  Level FlightAware ADS-B
Sat 02:43:57 AM 50.7110 7.9580 139° Southeast 452 520 37,000  Level FlightAware ADS-B
Sat 02:44:32 AM 50.6550 8.0350 139° Southeast 452 520 37,000  Level FlightAware ADS-B
Sat 02:45:22 AM 50.5790 8.1380 139° Southeast 452 520 37,000 -63 Level FlightAware ADS-B
Sat 02:46:07 AM 50.5000 8.2460 139° Southeast 454 522 36,900 -635 Descending FlightAware ADS-B
Sat 02:46:47 AM 50.4340 8.3350 139° Southeast 446 513 36,100 -675 Descending FlightAware ADS-B
Sat 02:47:27 AM 50.3740 8.4160 139° Southeast 426 490 36,000 -71 Descending FlightAware ADS-B
Sat 02:48:12 AM 50.3070 8.5060 139° Southeast 430 495 36,000  Level FlightAware ADS-B
Sat 02:48:52 AM 50.2480 8.5840 140° Southeast 436 502 36,000  Level FlightAware ADS-B
Sat 02:49:37 AM 50.1770 8.6790 139° Southeast 442 509 36,000 -141 Level FlightAware ADS-B
Sat 02:50:17 AM 50.1160 8.7600 140° Southeast 451 519 35,800 -675 Descending FlightAware ADS-B
Sat 02:50:57 AM 50.0500 8.8490 139° Southeast 452 520 35,100 -565 Descending FlightAware ADS-B
Sat 02:51:42 AM 49.9830 8.9460 137° Southeast 446 513 35,000 -71 Descending FlightAware ADS-B
Sat 02:52:22 AM 49.9220 9.0340 137° Southeast 451 519 35,000  Level FlightAware ADS-B
Sat 02:53:02 AM 49.8630 9.1160 138° Southeast 454 522 35,000  Level FlightAware ADS-B
Sat 02:53:47 AM 49.7890 9.2200 138° Southeast 457 526 35,000  Level FlightAware ADS-B
Sat 02:54:27 AM 49.7250 9.3090 138° Southeast 460 529 35,000  Level FlightAware ADS-B
Sat 02:55:07 AM 49.6810 9.3700 138° Southeast 462 532 35,000 -1,594 Level FlightAware ADS-B
Sat 02:57:00 AM 49.5208 9.6737 129° Southeast  Level Estimated
Sat 02:58:00 AM 49.4354 9.8341 129° Southeast  Level Estimated
Sat 02:59:00 AM 49.3498 9.9940 129° Southeast  Level Estimated
Sat 03:00:00 AM 49.2639 10.1533 130° Southeast  Level Estimated
Sat 03:00:17 AM 49.2540 10.1040 130° Southeast 426 490 25,700  Level FlightAware ADS-B
Sat 03:01:02 AM 49.1910 10.2090 133° Southeast 430 495 24,900 -1,412 Descending FlightAware ADS-B
Sat 03:01:42 AM 49.1330 10.3050 133° Southeast 425 489 23,700 -2,100 Descending FlightAware ADS-B
Sat 03:02:22 AM 49.0810 10.3880 134° Southeast 413 475 22,100 -2,325 Descending FlightAware ADS-B
Sat 03:03:02 AM 49.0280 10.4720 134° Southeast 411 473 20,600 -2,118 Descending FlightAware ADS-B
Sat 03:03:47 AM 48.9690 10.5670 133° Southeast 401 461 19,100 -1,976 Descending FlightAware ADS-B
Sat 03:04:27 AM 48.9240 10.6380 134° Southeast 400 460 17,800 -1,976 Descending FlightAware ADS-B
Sat 03:05:12 AM 48.8630 10.7350 134° Southeast 396 456 16,300 -1,341 Descending FlightAware ADS-B
Sat 03:05:52 AM 48.8150 10.8110 134° Southeast 393 452 15,900 -300 Descending FlightAware ADS-B
Sat 03:06:32 AM 48.7720 10.8790 134° Southeast 393 452 15,900 -2,612 Level FlightAware ADS-B
Sat 03:06:57 AM 48.7550 10.9360 114° Southeast 13,200 -4,933 Descending FlightAware ADS-B
Sat 03:07:17 AM 48.7300 11.0120 116° Southeast 385 443 12,200 -2,100 Descending FlightAware ADS-B
Sat 03:07:57 AM 48.6970 11.1050 118° Southeast 368 423 11,100 -847 Descending FlightAware ADS-B
Sat 03:08:42 AM 48.6570 11.2070 121° Southeast 361 415 11,000 -75 Descending FlightAware ADS-B
Sat 03:09:17 AM 48.6300 11.2780 120° Southeast 333 383 11,000 -525 Level FlightAware ADS-B
Sat 03:10:02 AM 48.5970 11.3690 119° Southeast 302 348 10,300 -943 Descending FlightAware ADS-B
Sat 03:10:27 AM 48.5820 11.4090 120° Southeast 295 339 9,900 -1,200 Descending FlightAware ADS-B
Sat 03:10:47 AM 48.5670 11.4510 118° Southeast 291 335 9,400 -1,080 Descending FlightAware ADS-B
Sat 03:11:17 AM 48.5590 11.5110 101° East 290 334 9,000 -436 Descending FlightAware ADS-B
Sat 03:11:42 AM 48.5550 11.5600 97° East 292 336 9,000  Level FlightAware ADS-B
Sat 03:12:12 AM 48.5510 11.6220 96° East 291 335 9,000  Level FlightAware ADS-B
Sat 03:12:27 AM 48.5490 11.6540 95° East 290 334 9,000  Level FlightAware ADS-B
Sat 03:12:52 AM 48.5450 11.7050 97° East 291 335 9,000 -655 Level FlightAware ADS-B
Sat 03:13:22 AM 48.5420 11.7660 94° East 287 330 8,400 -1,091 Descending FlightAware ADS-B
Sat 03:13:47 AM 48.5390 11.8140 95° East 282 325 8,000 -1,091 Descending FlightAware ADS-B
Sat 03:14:17 AM 48.5340 11.8730 97° East 276 318 7,400 -1,309 Descending FlightAware ADS-B
Sat 03:14:42 AM 48.5310 11.9220 95° East 275 316 6,800 -1,418 Descending FlightAware ADS-B
Sat 03:15:12 AM 48.5260 11.9770 98° East 272 313 6,100 -1,440 Descending FlightAware ADS-B
Sat 03:15:32 AM 48.5170 12.0130 111° Southeast 275 316 5,600 -800 Descending FlightAware ADS-B
Sat 03:16:12 AM 48.5000 12.0830 110° East 249 287 5,300 -277 Descending FlightAware ADS-B
Sat 03:16:37 AM 48.4900 12.1230 111° Southeast 246 283 5,300  Level FlightAware ADS-B
Sat 03:16:52 AM 48.4810 12.1450 122° Southeast 242 278 5,300  Level FlightAware ADS-B
Sat 03:17:02 AM 48.4710 12.1540 149° Southeast 240 276 5,300  Level FlightAware ADS-B
Sat 03:17:32 AM 48.4390 12.1640 168° South 233 268 5,300  Level FlightAware ADS-B
Sat 03:18:02 AM 48.4070 12.1560 189° South 234 269 5,300  Level FlightAware ADS-B
Sat 03:18:27 AM 48.3910 12.1260 231° Southwest 206 237 5,300 -150 Level FlightAware ADS-B
Sat 03:18:42 AM 48.3890 12.1070 261° West 194 223 5,200 -764 Descending FlightAware ADS-B
Sat 03:19:22 AM 48.3860 12.0540 265° West 190 219 4,600 -1,029 Descending FlightAware ADS-B
Sat 03:19:52 AM 48.3820 12.0140 261° West 190 219 4,000 -1,091 Descending FlightAware ADS-B
Sat 03:20:17 AM 48.3790 11.9820 262° West 185 213 3,600 -982 Descending FlightAware ADS-B
Sat 03:20:47 AM 48.3760 11.9440 263° West 172 198 3,100 -900 Descending FlightAware ADS-B
Sat 03:21:17 AM 48.3730 11.9110 262° West 154 177 2,700 -840 Descending FlightAware ADS-B
Sat 03:21:37 AM 48.3710 11.8900 262° West 146 168 2,400 -764 Descending FlightAware ADS-B
Sat 03:22:12 AM 48.3670 11.8540 261° West 147 169 2,000 -686 Descending FlightAware ADS-B

Login

Don't have an account? Register now (free) for customized features, flight alerts, and more!